M I D A S
Marine Information and Data Acquisition System
Tripno 505 of the Zeeleeuw from 2003-05-26 06:40:15 to 2003-05-26 16:43:07
Back to CruiseResearch ActivitiesStationsMapUnderway DataData graphs

EquipmentUnitsComment
TimeDGPSUTC
LatitudeDGPSDM.mWGS84
LongitudeDGPSDM.mWGS84
HeadingGyrodeg 
SOGDGPSknotsSpeed over ground
COGDGPSdegCourse over ground
DepthEcho soundermeters200 kHz
Missing or incorrect values are displayed as -999
Navigation data collected by the RV Zeeleeuw from 2003-05-26 06:40:15 to 2003-05-26 16:43:07
                                                                                    Next 1000 lines
Time Latitude Longitude Heading SOG COG Depth
2003-05-26 06:40:25 51°13.6 2°56.1 118.6   212 -999
2003-05-26 06:40:29 51°13.6 2°56.1 118   213 -999
2003-05-26 06:40:35 51°13.6 2°56.1 117.3   214 -999
2003-05-26 06:40:39 51°13.6 2°56.1 116.8   217 -999
2003-05-26 06:40:45 51°13.6 2°56.1 116.3   224 -999
2003-05-26 06:40:49 51°13.6 2°56.1 115.9   225 -999
2003-05-26 06:40:55 51°13.6 2°56.1 115.4   228 -999
2003-05-26 06:40:59 51°13.6 2°56.1 115   226 -999
2003-05-26 06:41:05 51°13.6 2°56.1 114.7   241 -999
2003-05-26 06:41:09 51°13.6 2°56.1 114.6   277 -999
2003-05-26 06:41:15 51°13.6 2°56.1 114.7 0.1 306 -999
2003-05-26 06:41:19 51°13.6 2°56.1 115 0.2 303 -999
2003-05-26 06:41:23 51°13.6 2°56.1 115.1 0.5 303 -999
2003-05-26 06:41:29 51°13.6 2°56.1 115.1 0.8 299 -999
2003-05-26 06:41:35 51°13.6 2°56.1 115.2 1.3 299 -999
2003-05-26 06:41:39 51°13.6 2°56.09 115.3 1.6 298 -999
2003-05-26 06:41:43 51°13.6 2°56.09 115.4 1.9 298 -999
2003-05-26 06:41:49 51°13.61 2°56.08 115.4 2.1 297 -999
2003-05-26 06:41:55 51°13.61 2°56.08 115.5 2.4 297 -999
2003-05-26 06:41:59 51°13.61 2°56.07 115.6 2.6 296 -999
2003-05-26 06:42:05 51°13.61 2°56.07 115.6 2.9 297 -999
2003-05-26 06:42:09 51°13.61 2°56.06 115 3 297 -999
2003-05-26 06:42:15 51°13.62 2°56.05 114.1 3.2 296 -999
2003-05-26 06:42:19 51°13.62 2°56.05 113.2 3.4 296 -999
2003-05-26 06:42:25 51°13.62 2°56.04 112.5 3.7 294 -999
2003-05-26 06:42:29 51°13.62 2°56.03 112.2 3.9 293 -999
2003-05-26 06:42:35 51°13.62 2°56.02 112.1 4.1 292 -999
2003-05-26 06:42:39 51°13.63 2°56.01 112.5 4.3 291 -999
2003-05-26 06:42:45 51°13.63 2°56 112.8 4.5 290 -999
2003-05-26 06:42:49 51°13.63 2°56 113.2 4.5 290 -999
2003-05-26 06:42:55 51°13.63 2°55.98 113.9 4.7 290 -999
2003-05-26 06:42:59 51°13.63 2°55.98 114.8 4.8 290 -999
2003-05-26 06:43:05 51°13.64 2°55.96 115.5 4.9 291 -999
2003-05-26 06:43:09 51°13.64 2°55.96 116.1 4.9 291 -999
2003-05-26 06:43:15 51°13.64 2°55.94 116.6 5 292 -999
2003-05-26 06:43:19 51°13.64 2°55.93 116.8 5.1 293 -999
2003-05-26 06:43:25 51°13.65 2°55.92 116.8 5.1 294 -999
2003-05-26 06:43:29 51°13.65 2°55.91 116.6 5.1 294 -999
2003-05-26 06:43:35 51°13.65 2°55.9 116.1 5.1 295 -999
2003-05-26 06:43:39 51°13.66 2°55.89 115.4 5.1 295 -999
2003-05-26 06:43:43 51°13.66 2°55.89 114.2 4.9 294 -999
2003-05-26 06:43:49 51°13.66 2°55.87 112.9 4.7 294 -999
2003-05-26 06:43:55 51°13.66 2°55.86 111.2 4.5 293 -999
2003-05-26 06:43:59 51°13.67 2°55.86 109.7 4.4 292 -999
2003-05-26 06:44:03 51°13.67 2°55.85 108.2 4.3 290 -999
2003-05-26 06:44:09 51°13.67 2°55.84 106.6 4.2 290 -999
2003-05-26 06:44:15 51°13.67 2°55.83 104.8 4 289 -999
2003-05-26 06:44:19 51°13.67 2°55.82 102.8 3.9 288 -999
2003-05-26 06:44:25 51°13.67 2°55.81 100.8 3.7 286 -999
2003-05-26 06:44:29 51°13.68 2°55.81 99 3.6 284 -999
2003-05-26 06:44:35 51°13.68 2°55.8 97.4 3.4 281 -999
2003-05-26 06:44:39 51°13.68 2°55.79 96 3.3 280 -999
2003-05-26 06:44:45 51°13.68 2°55.78 95 3.1 277 -999
2003-05-26 06:44:49 51°13.68 2°55.78 93.8 3 275 -999
2003-05-26 06:44:55 51°13.68 2°55.77 92.8 2.6 272 -999
2003-05-26 06:44:59 51°13.68 2°55.77 92.1 2.4 271 -999
2003-05-26 06:45:05 51°13.68 2°55.76 91.3 1.9 268 -999
2003-05-26 06:45:09 51°13.68 2°55.76 89.4 1.5 266 -999
2003-05-26 06:45:13 51°13.68 2°55.76 86.6 0.9 263 10.9
2003-05-26 06:45:19 51°13.68 2°55.76 85.2 0.5 259 10.9
2003-05-26 06:45:23 51°13.68 2°55.76 82.8 0.1 246 10.8
2003-05-26 06:45:27 51°13.68 2°55.76 81.2 0.3 86 11
2003-05-26 06:45:31 51°13.68 2°55.76 78.3 0.6 77 11.1
2003-05-26 06:45:35 51°13.68 2°55.77 74.2 1 68 11.2
2003-05-26 06:45:39 51°13.68 2°55.77 68.4 1.3 62 11.7
2003-05-26 06:45:45 51°13.68 2°55.77 62.3 1.5 57 12.4
2003-05-26 06:45:49 51°13.68 2°55.77 55.9 1.7 52 12.4
2003-05-26 06:45:55 51°13.68 2°55.78 49.3 2 45 12.4
2003-05-26 06:45:59 51°13.69 2°55.78 42.8 2.2 40 12.6
2003-05-26 06:46:03 51°13.69 2°55.78 36.2 2.5 32 12.4
2003-05-26 06:46:09 51°13.69 2°55.79 29.8 2.5 29 12.3
2003-05-26 06:46:15 51°13.7 2°55.79 25.5 2.4 22 12.3
2003-05-26 06:46:19 51°13.7 2°55.79 22.4 2.3 19 12.2
2003-05-26 06:46:23 51°13.7 2°55.79 18.7 1.8 15 12.1
2003-05-26 06:46:29 51°13.7 2°55.79 14.4 1.5 12 12.3
2003-05-26 06:46:35 51°13.7 2°55.79 10.5 1 7 12.3
2003-05-26 06:46:39 51°13.7 2°55.79 7.3 0.7 5 12.2
2003-05-26 06:46:43 51°13.7 2°55.79 4.9 0.3 359 12.2
2003-05-26 06:46:49 51°13.7 2°55.79 3 0.1 324 12.3
2003-05-26 06:46:55 51°13.7 2°55.79 1.5 0.4 190 12.3
2003-05-26 06:46:59 51°13.7 2°55.79 0.1 0.7 186 12.3
2003-05-26 06:47:05 51°13.7 2°55.79 358.8 1.1 182 -999
2003-05-26 06:47:11 51°13.7 2°55.79 357.4 1.4 181 -999
2003-05-26 06:47:15 51°13.7 2°55.79 356.2 1.5 180 -999
2003-05-26 06:47:21 51°13.69 2°55.79 355.6 1.5 180 -999
2003-05-26 06:47:27 51°13.69 2°55.79 355.2 1.3 181 -999
2003-05-26 06:47:31 51°13.69 2°55.79 354.8 1.2 182 -999
2003-05-26 06:47:37 51°13.69 2°55.79 353.5 0.8 188 -999
2003-05-26 06:47:43 51°13.69 2°55.79 351.7 0.4 213 -999
2003-05-26 06:47:47 51°13.69 2°55.79 348.1 0.3 262 -999
2003-05-26 06:47:53 51°13.69 2°55.79 344.6 0.5 318 -999
2003-05-26 06:47:59 51°13.69 2°55.79 341.6 0.9 325 -999
2003-05-26 06:48:03 51°13.69 2°55.78 338.2 1.2 328 -999
2003-05-26 06:48:09 51°13.7 2°55.78 334.9 1.5 329 -999
2003-05-26 06:48:15 51°13.7 2°55.78 332.2 1.9 328 -999
2003-05-26 06:48:19 51°13.7 2°55.78 329.4 2.1 326 -999
2003-05-26 06:48:23 51°13.7 2°55.77 328.3 2.5 325 -999
2003-05-26 06:48:29 51°13.71 2°55.77 327.9 2.6 324 -999
2003-05-26 06:48:33 51°13.71 2°55.77 327.4 2.8 323 12.7
2003-05-26 06:48:37 51°13.71 2°55.76 326.9 3 322 12.7
2003-05-26 06:48:43 51°13.72 2°55.76 326.6 3.2 322 12.6
2003-05-26 06:48:47 51°13.72 2°55.75 326.6 3.3 321 12.6
2003-05-26 06:48:51 51°13.72 2°55.75 327.1 3.5 322 12.2
2003-05-26 06:48:55 51°13.73 2°55.75 328 3.7 322 12.2
2003-05-26 06:48:59 51°13.73 2°55.74 328.8 4 323 11.6
2003-05-26 06:49:03 51°13.73 2°55.74 329.1 4.4 324 11.7
2003-05-26 06:49:09 51°13.74 2°55.73 329.3 4.7 325 11.7
2003-05-26 06:49:15 51°13.75 2°55.72 329.7 5.1 326 11.6
2003-05-26 06:49:19 51°13.75 2°55.72 329.7 5.3 326 11.5
2003-05-26 06:49:23 51°13.76 2°55.71 329.9 5.6 326 11.2
2003-05-26 06:49:29 51°13.77 2°55.7 330.1 5.8 326 11.2
2003-05-26 06:49:35 51°13.77 2°55.69 330.2 6.1 327 11
2003-05-26 06:49:39 51°13.78 2°55.69 330.2 6.2 327 11.1
2003-05-26 06:49:43 51°13.79 2°55.68 330.9 6.4 327 11.3
2003-05-26 06:49:49 51°13.79 2°55.67 332 6.4 327 11.4
2003-05-26 06:49:55 51°13.8 2°55.66 332.1 6.6 328 11.5
2003-05-26 06:49:59 51°13.81 2°55.66 331.9 6.7 328 11.5
2003-05-26 06:50:03 51°13.82 2°55.65 333.2 6.8 329 11.6
2003-05-26 06:50:09 51°13.83 2°55.64 335.3 6.9 330 11.6
2003-05-26 06:50:15 51°13.84 2°55.63 336.4 7 332 11.4
2003-05-26 06:50:19 51°13.84 2°55.63 336.7 7 333 11.5
2003-05-26 06:50:23 51°13.85 2°55.62 337.5 7.1 333 11
2003-05-26 06:50:29 51°13.86 2°55.61 338.8 7.2 334 11.3
2003-05-26 06:50:35 51°13.87 2°55.6 338.9 7.2 335 11.5
2003-05-26 06:50:39 51°13.88 2°55.6 339.4 7.3 335 11.5
2003-05-26 06:50:43 51°13.89 2°55.59 339.7 7.3 335 12
2003-05-26 06:50:49 51°13.9 2°55.59 340 7.3 336 12
2003-05-26 06:50:55 51°13.91 2°55.58 339.9 7.4 336 11.9
2003-05-26 06:50:59 51°13.92 2°55.57 339.5 7.4 336 12.2
2003-05-26 06:51:03 51°13.92 2°55.57 339.5 7.5 335 12.1
2003-05-26 06:51:09 51°13.94 2°55.56 339.7 7.5 335 12
2003-05-26 06:51:15 51°13.95 2°55.55 339.2 7.6 335 12.1
2003-05-26 06:51:19 51°13.96 2°55.54 339.1 7.7 335 12.2
2003-05-26 06:51:23 51°13.96 2°55.54 339.5 7.8 335 12.1
2003-05-26 06:51:29 51°13.98 2°55.53 340.2 7.8 335 12.1
2003-05-26 06:51:35 51°13.99 2°55.52 340.3 7.9 336 11.9
2003-05-26 06:51:39 51°13.99 2°55.51 339.7 7.9 336 11.9
2003-05-26 06:51:43 51°14 2°55.51 339.5 7.9 335 11.8
2003-05-26 06:51:49 51°14.01 2°55.5 339.6 7.9 335 11.8
2003-05-26 06:51:55 51°14.03 2°55.49 339.7 7.9 335 11.8
2003-05-26 06:51:59 51°14.03 2°55.48 339.4 7.9 335 11.8
2003-05-26 06:52:03 51°14.04 2°55.48 339 8 334 11.7
2003-05-26 06:52:09 51°14.05 2°55.47 339 8 334 11.7
2003-05-26 06:52:15 51°14.07 2°55.46 339.3 8 334 11.7
2003-05-26 06:52:19 51°14.07 2°55.45 339.4 8 335 11.8
2003-05-26 06:52:23 51°14.08 2°55.45 338.9 8 334 12
2003-05-26 06:52:29 51°14.09 2°55.44 338.2 8 334 12
2003-05-26 06:52:35 51°14.11 2°55.43 338.1 8 333 12
2003-05-26 06:52:39 51°14.11 2°55.42 338.2 8 333 11.9
2003-05-26 06:52:43 51°14.12 2°55.42 337.7 8 333 12.2
2003-05-26 06:52:49 51°14.13 2°55.41 336.6 8 333 12.2
2003-05-26 06:52:55 51°14.15 2°55.4 335.7 8 331 12.3
2003-05-26 06:52:59 51°14.15 2°55.39 334.8 8 331 12.1
2003-05-26 06:53:03 51°14.16 2°55.38 334.6 8 330 12.3
2003-05-26 06:53:09 51°14.17 2°55.37 334.5 8 330 12.5
2003-05-26 06:53:15 51°14.18 2°55.36 333.1 7.9 329 12.3
2003-05-26 06:53:19 51°14.19 2°55.35 331.5 7.9 328 12.5
2003-05-26 06:53:23 51°14.2 2°55.35 329.5 7.9 325 12.4
2003-05-26 06:53:29 51°14.21 2°55.33 327.1 7.9 324 12.3
2003-05-26 06:53:35 51°14.22 2°55.32 325.5 7.9 322 12.1
2003-05-26 06:53:39 51°14.23 2°55.31 323.7 7.9 320 12.1
2003-05-26 06:53:43 51°14.23 2°55.3 322.6 7.9 319 12.2
2003-05-26 06:53:49 51°14.24 2°55.29 321.8 7.9 318 12.2
2003-05-26 06:53:55 51°14.25 2°55.27 321.1 8 317 12
2003-05-26 06:53:59 51°14.26 2°55.26 320.4 8 317 12.1
2003-05-26 06:54:03 51°14.26 2°55.25 319.5 8 316 12
2003-05-26 06:54:09 51°14.27 2°55.24 318.6 8 315 12
2003-05-26 06:54:15 51°14.28 2°55.22 317.9 8 314 12.2
2003-05-26 06:54:19 51°14.29 2°55.21 317 8 313 12
2003-05-26 06:54:23 51°14.29 2°55.2 316.1 8 312 12.1
2003-05-26 06:54:29 51°14.3 2°55.19 315 8 311 12
2003-05-26 06:54:35 51°14.31 2°55.17 314.1 8 310 11.9
2003-05-26 06:54:39 51°14.32 2°55.16 313.3 8 309 12.2
2003-05-26 06:54:43 51°14.32 2°55.15 313.1 8 309 12.2
2003-05-26 06:54:49 51°14.33 2°55.13 313.3 8 309 11.3
2003-05-26 06:54:55 51°14.34 2°55.11 313.8 8 309 11
2003-05-26 06:54:59 51°14.35 2°55.1 315.1 8 310 11
2003-05-26 06:55:03 51°14.35 2°55.09 317.2 8 313 11.4
2003-05-26 06:55:09 51°14.36 2°55.08 319.5 8 315 11.5
2003-05-26 06:55:15 51°14.37 2°55.06 322.2 8 318 11.6
2003-05-26 06:55:19 51°14.38 2°55.06 325.4 8 321 11.2
2003-05-26 06:55:23 51°14.39 2°55.05 328.7 8 325 11.3
2003-05-26 06:55:29 51°14.4 2°55.04 332.1 8 328 11.4
2003-05-26 06:55:35 51°14.41 2°55.03 335.2 8 332 11.3
2003-05-26 06:55:39 51°14.42 2°55.02 338.2 8 335 11.2
2003-05-26 06:55:43 51°14.43 2°55.02 341.1 8.1 338 11.2
2003-05-26 06:55:49 51°14.44 2°55.01 343.5 8.3 340 11
2003-05-26 06:55:55 51°14.45 2°55 344.4 8.6 342 10.7
2003-05-26 06:55:59 51°14.46 2°55 344 8.8 342 10.6
2003-05-26 06:56:03 51°14.47 2°54.99 343.8 9.1 342 10.6
2003-05-26 06:56:09 51°14.49 2°54.99 344.6 9.3 342 10.6
2003-05-26 06:56:15 51°14.5 2°54.98 345.5 9.5 343 10.5
2003-05-26 06:56:19 51°14.51 2°54.98 346.7 9.7 344 10.4
2003-05-26 06:56:23 51°14.52 2°54.97 348.1 9.8 346 10.4
2003-05-26 06:56:29 51°14.54 2°54.97 349.6 9.9 347 10.3
2003-05-26 06:56:35 51°14.56 2°54.96 351.2 10.1 349 10.4
2003-05-26 06:56:39 51°14.57 2°54.96 353 10.1 350 10.3
2003-05-26 06:56:43 51°14.58 2°54.96 354.8 10.2 352 10.2
2003-05-26 06:56:49 51°14.59 2°54.95 356.4 10.3 353 10.3
2003-05-26 06:56:55 51°14.61 2°54.95 356.5 10.3 354 10.3
2003-05-26 06:56:59 51°14.62 2°54.95 355.4 10.4 353 10.3
2003-05-26 06:57:03 51°14.64 2°54.94 354.1 10.4 352 10.3
2003-05-26 06:57:09 51°14.65 2°54.94 353.5 10.4 351 10.3
2003-05-26 06:57:15 51°14.67 2°54.94 353.8 10.5 352 10.2
2003-05-26 06:57:19 51°14.68 2°54.93 354.5 10.5 352 10.2
2003-05-26 06:57:23 51°14.69 2°54.93 354.9 10.5 353 10.2
2003-05-26 06:57:29 51°14.71 2°54.93 355.2 10.5 353 10.2
2003-05-26 06:57:35 51°14.73 2°54.92 355.5 10.5 353 10.1
2003-05-26 06:57:39 51°14.74 2°54.92 355.8 10.6 353 10.1
2003-05-26 06:57:43 51°14.75 2°54.92 356.4 10.6 354 10
2003-05-26 06:57:49 51°14.77 2°54.92 357 10.6 354 9.9
2003-05-26 06:57:55 51°14.79 2°54.92 357.3 10.6 355 9.9
2003-05-26 06:57:59 51°14.8 2°54.91 357 10.6 355 9.9
2003-05-26 06:58:03 51°14.81 2°54.91 356 10.5 354 9.9
2003-05-26 06:58:09 51°14.83 2°54.91 355 10.5 354 9.9
2003-05-26 06:58:15 51°14.84 2°54.91 354.6 10.5 353 9.9
2003-05-26 06:58:19 51°14.86 2°54.9 354.3 10.5 352 9.9
2003-05-26 06:58:23 51°14.87 2°54.9 354.2 10.5 352 9.9
2003-05-26 06:58:29 51°14.88 2°54.9 354.2 10.5 352 9.9
2003-05-26 06:58:35 51°14.9 2°54.89 354.2 10.5 352 9.9
2003-05-26 06:58:39 51°14.91 2°54.89 354.3 10.5 353 9.9
2003-05-26 06:58:43 51°14.92 2°54.89 354.8 10.5 353 9.8
2003-05-26 06:58:49 51°14.94 2°54.89 355.6 10.5 353 9.9
2003-05-26 06:58:55 51°14.96 2°54.88 356.6 10.6 355 9.8
2003-05-26 06:58:59 51°14.97 2°54.88 357.8 10.6 355 9.9
2003-05-26 06:59:03 51°14.98 2°54.88 359.2 10.6 357 9.9
2003-05-26 06:59:09 51°15 2°54.88 0.7 10.6 358 9.9
2003-05-26 06:59:15 51°15.02 2°54.88 2.3 10.7   10
2003-05-26 06:59:19 51°15.03 2°54.88 4.8 10.7 2 9.6
2003-05-26 06:59:23 51°15.04 2°54.88 7.1 10.8 4 9.7
2003-05-26 06:59:29 51°15.06 2°54.89 7.8 10.9 5 9.6
2003-05-26 06:59:35 51°15.08 2°54.89 7.4 11 5 9.5
2003-05-26 06:59:39 51°15.09 2°54.89 6.2 11 4 9.4
2003-05-26 06:59:43 51°15.1 2°54.89 5 11.1 3 9.4
2003-05-26 06:59:49 51°15.12 2°54.89 3.6 11.1 2 9.3
2003-05-26 06:59:55 51°15.14 2°54.89 2.4 11.1   9.3
2003-05-26 06:59:59 51°15.15 2°54.89 1.8 11.2 359 9.1
2003-05-26 07:00:03 51°15.16 2°54.89 1.5 11.2 359 9.1
2003-05-26 07:00:09 51°15.18 2°54.89 1.4 11.2 359 9.1
2003-05-26 07:00:15 51°15.2 2°54.89 1.6 11.2 359 9.1
2003-05-26 07:00:19 51°15.21 2°54.89 1.2 11.2 359 9.2
2003-05-26 07:00:23 51°15.23 2°54.89 0.4 11.2 358 9.2
2003-05-26 07:00:29 51°15.25 2°54.88 359 11.2 357 9.2
2003-05-26 07:00:35 51°15.26 2°54.88 357.8 11.2 355 9.3
2003-05-26 07:00:39 51°15.28 2°54.88 356.4 11.2 354 9.3
2003-05-26 07:00:43 51°15.29 2°54.88 356 11.3 353 9.4
2003-05-26 07:00:49 51°15.31 2°54.87 357 11.3 354 9.5
2003-05-26 07:00:55 51°15.33 2°54.87 359.1 11.3 356 9.6
2003-05-26 07:00:59 51°15.34 2°54.87 1 11.3 357 9.6
2003-05-26 07:01:03 51°15.35 2°54.87 2.7 11.3 359 9.7
2003-05-26 07:01:09 51°15.37 2°54.87 4.1 11.4 1 9.7
2003-05-26 07:01:15 51°15.39 2°54.87 5.3 11.4 2 9.8
2003-05-26 07:01:19 51°15.4 2°54.88 6.5 11.4 3 9.8
2003-05-26 07:01:23 51°15.41 2°54.88 6.4 11.4 3 9.9
2003-05-26 07:01:29 51°15.43 2°54.88 5.4 11.4 2 9.8
2003-05-26 07:01:35 51°15.45 2°54.88 3.6 11.4 1 9.9
2003-05-26 07:01:39 51°15.47 2°54.88 1.7 11.4 359 10
2003-05-26 07:01:43 51°15.48 2°54.88 0.6 11.4 358 10
2003-05-26 07:01:49 51°15.5 2°54.87 359.9 11.3 357 10
2003-05-26 07:01:55 51°15.52 2°54.87 359.7 11.4 356 10.1
2003-05-26 07:01:59 51°15.53 2°54.87 359.6 11.4 356 10.1
2003-05-26 07:02:03 51°15.54 2°54.87 359.6 11.4 357 10.1
2003-05-26 07:02:09 51°15.56 2°54.87   11.4 357 10.2
2003-05-26 07:02:15 51°15.58 2°54.87 0.5 11.4 357 10.2
2003-05-26 07:02:19 51°15.59 2°54.87 1.2 11.4 358 10.2
2003-05-26 07:02:23 51°15.6 2°54.87 2 11.4 359 10.3
2003-05-26 07:02:29 51°15.62 2°54.87 3 11.4 359 10.3
2003-05-26 07:02:35 51°15.64 2°54.87 3.3 11.4   10.3
2003-05-26 07:02:39 51°15.66 2°54.87 2.9 11.4   10.4
2003-05-26 07:02:43 51°15.67 2°54.87 2.1 11.4 359 10.4
2003-05-26 07:02:49 51°15.69 2°54.86 1.4 11.4 358 10.5
2003-05-26 07:02:55 51°15.71 2°54.86 0.9 11.4 358 10.6
2003-05-26 07:02:59 51°15.72 2°54.86 0.7 11.4 357 10.6
2003-05-26 07:03:03 51°15.73 2°54.86 1.4 11.4 358 10.6
2003-05-26 07:03:09 51°15.75 2°54.86 2.5 11.4 359 10.6
2003-05-26 07:03:15 51°15.77 2°54.86 4.1 11.4   10.7
2003-05-26 07:03:19 51°15.78 2°54.86 5.1 11.4 1 10.8
2003-05-26 07:03:23 51°15.79 2°54.86 4.3 11.4 1 10.8
2003-05-26 07:03:29 51°15.81 2°54.86 1.7 11.3   10.9
2003-05-26 07:03:35 51°15.83 2°54.86 359 11.3 356 11
2003-05-26 07:03:39 51°15.84 2°54.86 356.4 11.3 354 11
2003-05-26 07:03:43 51°15.86 2°54.85 354.6 11.3 352 11.1
2003-05-26 07:03:49 51°15.88 2°54.85 353.5 11.2 351 11.1
2003-05-26 07:03:55 51°15.89 2°54.84 352.7 11.2 350 11.2
2003-05-26 07:03:59 51°15.91 2°54.84 352.7 11.3 349 11.2
2003-05-26 07:04:03 51°15.92 2°54.84 353 11.3 350 11.3
2003-05-26 07:04:09 51°15.94 2°54.83 353.6 11.3 350 11.3
2003-05-26 07:04:15 51°15.96 2°54.83 354.5 11.3 351 11.4
2003-05-26 07:04:19 51°15.97 2°54.82 355.5 11.3 351 11.4
2003-05-26 07:04:23 51°15.98 2°54.82 356.3 11.3 352 11.4
2003-05-26 07:04:29 51°16 2°54.82 354.9 11.3 352 11.5
2003-05-26 07:04:35 51°16.02 2°54.81 352 11.2 349 11.6
2003-05-26 07:04:39 51°16.03 2°54.81 348.9 11.2 347 11.6
2003-05-26 07:04:43 51°16.04 2°54.8 345.4 11.1 343 11.7
2003-05-26 07:04:49 51°16.06 2°54.79 343.9 11.1 341 11.7
2003-05-26 07:04:55 51°16.07 2°54.78 342.7 11.1 340 11.8
2003-05-26 07:04:59 51°16.09 2°54.77 340.8 11.1 339 11.8
2003-05-26 07:05:03 51°16.1 2°54.76 337.8 10.7 336 11.8
2003-05-26 07:05:09 51°16.11 2°54.75 335.1 10.3 334 11.8
2003-05-26 07:05:15 51°16.13 2°54.74 331.8 9.6 331 12
2003-05-26 07:05:19 51°16.13 2°54.73 328.2 9.1 328 12
2003-05-26 07:05:23 51°16.14 2°54.72 323.2 8.3 324 12
2003-05-26 07:05:29 51°16.15 2°54.71 316.8 7.8 319 12.1
2003-05-26 07:05:35 51°16.16 2°54.69 310.5 7.1 312 12.1
2003-05-26 07:05:39 51°16.16 2°54.68 304.4 6.7 307 12.1
2003-05-26 07:05:43 51°16.16 2°54.68 298.3 6.1 300 12.2
2003-05-26 07:05:49 51°16.17 2°54.66 292.6 5.8 296 12.2
2003-05-26 07:05:55 51°16.17 2°54.65 288.3 5.5 290 12.2
2003-05-26 07:05:59 51°16.17 2°54.64 286 5.4 287 12.2
2003-05-26 07:06:03 51°16.17 2°54.63 284.7 5.3 285 12.3
2003-05-26 07:06:09 51°16.18 2°54.62 284 5.2 284 12.2
2003-05-26 07:06:15 51°16.18 2°54.6 283.4 5 284 12.3
2003-05-26 07:06:19 51°16.18 2°54.6 283.2 4.8 283 12.3
2003-05-26 07:06:23 51°16.18 2°54.59 283.1 4.7 283 12.3
2003-05-26 07:06:29 51°16.18 2°54.58 283.4 4.5 283 12.3
2003-05-26 07:06:35 51°16.18 2°54.57 283.8 4.4 284 12.4
2003-05-26 07:06:39 51°16.18 2°54.56 284.5 4.3 285 12.4
2003-05-26 07:06:43 51°16.19 2°54.55 285.5 4.2 286 12.4
2003-05-26 07:06:49 51°16.19 2°54.54 286.7 4.1 287 12.4
2003-05-26 07:06:55 51°16.19 2°54.53 288.1 4 288 12.4
2003-05-26 07:06:59 51°16.19 2°54.52 289.5 3.9 289 12.4
2003-05-26 07:07:03 51°16.19 2°54.52 291 3.8 291 12.4
2003-05-26 07:07:09 51°16.19 2°54.51 292.1 3.7 292 12.5
2003-05-26 07:07:15 51°16.2 2°54.5 294.1 3.6 295 12.5
2003-05-26 07:07:19 51°16.2 2°54.5 296.1 3.5 296 12.5
2003-05-26 07:07:23 51°16.2 2°54.49 298 3.5 299 12.5
2003-05-26 07:07:29 51°16.2 2°54.48 299.9 3.4 300 12.5
2003-05-26 07:07:35 51°16.21 2°54.48 301.3 3.3 303 12.5
2003-05-26 07:07:39 51°16.21 2°54.47 302.6 3.3 304 12.6
2003-05-26 07:07:43 51°16.21 2°54.47 303.3 3.4 305 12.6
2003-05-26 07:07:49 51°16.21 2°54.46 303.6 3.6 305 12.6
2003-05-26 07:07:55 51°16.22 2°54.45 303 4 305 12.6
2003-05-26 07:07:59 51°16.22 2°54.44 301.9 4.2 304 12.6
2003-05-26 07:08:03 51°16.22 2°54.44 301 4.4 302 12.6
2003-05-26 07:08:09 51°16.23 2°54.43 300.4 4.6 301 12.7
2003-05-26 07:08:15 51°16.23 2°54.41 299.9 4.8 301 12.7
2003-05-26 07:08:19 51°16.24 2°54.41 299.6 4.9 300 12.7
2003-05-26 07:08:23 51°16.24 2°54.4 299.3 5.1 300 12.7
2003-05-26 07:08:29 51°16.24 2°54.39 298.9 5.2 299 12.7
2003-05-26 07:08:35 51°16.25 2°54.37 298.8 5.4 299 12.7
2003-05-26 07:08:39 51°16.25 2°54.37 298.5 5.5 299 12.8
2003-05-26 07:08:43 51°16.25 2°54.36 298.3 5.6 298 12.7
2003-05-26 07:08:49 51°16.26 2°54.34 298.3 5.6 298 12.8
2003-05-26 07:08:55 51°16.26 2°54.33 298.1 5.5 298 12.7
2003-05-26 07:08:59 51°16.26 2°54.32 297.8 5.3 298 12.7
2003-05-26 07:09:03 51°16.27 2°54.32 297.2 4.8 298 12.7
2003-05-26 07:09:09 51°16.27 2°54.31 295.6 4.4 298 12.7
2003-05-26 07:09:15 51°16.27 2°54.3 294.5 3.7 298 12.8
2003-05-26 07:09:19 51°16.27 2°54.29 292.9 3.3 298 12.8
2003-05-26 07:09:23 51°16.27 2°54.29 291.7 2.6 299 12.8
2003-05-26 07:09:29 51°16.28 2°54.28 290.5 2.2 300 12.7
2003-05-26 07:09:35 51°16.28 2°54.28 289.7 1.5 306 12.8
2003-05-26 07:09:39 51°16.28 2°54.28 288.9 1.1 315 12.8
2003-05-26 07:09:43 51°16.28 2°54.28 288.3 0.7 330 12.8
2003-05-26 07:09:49 51°16.28 2°54.28 287.8 0.7 338 12.8
2003-05-26 07:09:55 51°16.28 2°54.28 287.1 0.7 336 12.8
2003-05-26 07:09:59 51°16.28 2°54.28 286.2 0.7 336 12.8
2003-05-26 07:10:03 51°16.28 2°54.28 285.2 0.6 334 12.8
2003-05-26 07:10:09 51°16.28 2°54.28 284.5 0.6 334 12.8
2003-05-26 07:10:15 51°16.28 2°54.28 283.7 0.6 334 12.8
2003-05-26 07:10:19 51°16.29 2°54.28 282.8 0.6 335 12.9
2003-05-26 07:10:23 51°16.29 2°54.28 282.2 0.6 336 12.8
2003-05-26 07:10:29 51°16.29 2°54.28 281.4 0.5 336 12.8
2003-05-26 07:10:35 51°16.29 2°54.28 280.8 0.5 336 12.8
2003-05-26 07:10:39 51°16.29 2°54.27 280.1 0.5 336 12.8
2003-05-26 07:10:43 51°16.29 2°54.27 279.5 0.5 336 12.8
2003-05-26 07:10:49 51°16.29 2°54.27 279.1 0.5 336 12.8
2003-05-26 07:10:55 51°16.29 2°54.27 278.6 0.5 336 12.8
2003-05-26 07:10:59 51°16.29 2°54.27 278.1 0.5 336 12.8
2003-05-26 07:11:03 51°16.29 2°54.27 277.7 0.4 336 12.8
2003-05-26 07:11:09 51°16.29 2°54.27 277.2 0.4 336 12.8
2003-05-26 07:11:15 51°16.29 2°54.27 276.7 0.4 337 12.8
2003-05-26 07:11:19 51°16.29 2°54.27 276.3 0.4 336 12.8
2003-05-26 07:11:23 51°16.29 2°54.27 276 0.4 337 12.8
2003-05-26 07:11:29 51°16.29 2°54.27 275.7 0.4 338 12.8
2003-05-26 07:11:35 51°16.29 2°54.27 275.3 0.4 339 12.9
2003-05-26 07:11:39 51°16.29 2°54.27 275 0.4 340 12.8
2003-05-26 07:11:43 51°16.29 2°54.27 274.8 0.4 341 12.9
2003-05-26 07:11:49 51°16.3 2°54.27 274.5 0.4 341 12.8
2003-05-26 07:11:55 51°16.3 2°54.27 274.3 0.4 342 12.8
2003-05-26 07:11:59 51°16.3 2°54.27 274.1 0.3 341 12.8
2003-05-26 07:12:03 51°16.3 2°54.27 274.1 0.3 343 12.8
2003-05-26 07:12:09 51°16.3 2°54.27 274 0.3 344 12.9
2003-05-26 07:12:15 51°16.3 2°54.27 274 0.3 346 12.9
2003-05-26 07:12:19 51°16.3 2°54.27 274 0.3 346 12.8
2003-05-26 07:12:23 51°16.3 2°54.27 273.9 0.3 349 12.8
2003-05-26 07:12:29 51°16.3 2°54.27 273.8 0.3 349 12.8
2003-05-26 07:12:35 51°16.3 2°54.27 273.8 0.3 351 12.8
2003-05-26 07:12:39 51°16.3 2°54.27 273.7 0.3 351 12.8
2003-05-26 07:12:43 51°16.3 2°54.27 273.7 0.3 354 12.8
2003-05-26 07:12:49 51°16.3 2°54.27 273.6 0.3 355 12.9
2003-05-26 07:12:55 51°16.3 2°54.27 273.6 0.3 356 12.8
2003-05-26 07:12:59 51°16.3 2°54.27 273.6 0.3 356 12.9
2003-05-26 07:13:03 51°16.3 2°54.27 273.6 0.3 359 12.9
2003-05-26 07:13:09 51°16.3 2°54.27 273.6 0.3 359 12.9
2003-05-26 07:13:15 51°16.3 2°54.27 273.6 0.3 1 12.9
2003-05-26 07:13:19 51°16.3 2°54.27 273.6 0.3 1 12.9
2003-05-26 07:13:23 51°16.3 2°54.27 273.8 0.3 2 12.9
2003-05-26 07:13:29 51°16.3 2°54.27 273.8 0.3 4 12.8
2003-05-26 07:13:35 51°16.31 2°54.27 274 0.3 5 12.9
2003-05-26 07:13:39 51°16.31 2°54.27 274.1 0.3 6 12.9
2003-05-26 07:13:43 51°16.31 2°54.27 274.2 0.4 6 12.9
2003-05-26 07:13:49 51°16.31 2°54.27 274.3 0.3 8 12.9
2003-05-26 07:13:55 51°16.31 2°54.27 274.3 0.4 9 12.9
2003-05-26 07:13:59 51°16.31 2°54.27 274.4 0.4 10 12.9
2003-05-26 07:14:03 51°16.31 2°54.27 274.6 0.4 10 12.9
2003-05-26 07:14:09 51°16.31 2°54.27 274.7 0.4 11 12.9
2003-05-26 07:14:15 51°16.31 2°54.27 274.9 0.4 12 12.9
2003-05-26 07:14:19 51°16.31 2°54.27 275 0.4 12 12.8
2003-05-26 07:14:23 51°16.31 2°54.27 275 0.4 13 12.9
2003-05-26 07:14:29 51°16.31 2°54.27 275.2 0.4 14 12.9
2003-05-26 07:14:35 51°16.31 2°54.27 275.3 0.4 14 12.9
2003-05-26 07:14:39 51°16.31 2°54.27 275.7 0.4 15 12.9
2003-05-26 07:14:43 51°16.31 2°54.27 275.9 0.5 15 12.9
2003-05-26 07:14:49 51°16.31 2°54.27 276.2 0.5 15 12.9
2003-05-26 07:14:55 51°16.31 2°54.27 276.4 0.5 16 12.9
2003-05-26 07:14:59 51°16.31 2°54.27 276.5 0.5 16 12.9
2003-05-26 07:15:03 51°16.31 2°54.27 276.6 0.5 18 12.9
2003-05-26 07:15:09 51°16.32 2°54.27 276.8 0.5 19 13
2003-05-26 07:15:15 51°16.32 2°54.27 277 0.5 19 12.9
2003-05-26 07:15:19 51°16.32 2°54.27 277 0.5 20 13
2003-05-26 07:15:23 51°16.32 2°54.27 277 0.5 21 12.9
2003-05-26 07:15:29 51°16.32 2°54.27 277 0.5 22 12.9
2003-05-26 07:15:35 51°16.32 2°54.27 276.8 0.5 23 12.9
2003-05-26 07:15:39 51°16.32 2°54.27 276.6 0.5 24 12.9
2003-05-26 07:15:43 51°16.32 2°54.28 276.4 0.5 25 12.9
2003-05-26 07:15:49 51°16.32 2°54.28 276.1 0.5 27 13
2003-05-26 07:15:55 51°16.32 2°54.28 275.8 0.5 28 12.9
2003-05-26 07:15:59 51°16.32 2°54.28 275.5 0.5 28 13
2003-05-26 07:16:03 51°16.32 2°54.28 275.1 0.5 30 12.9
2003-05-26 07:16:09 51°16.32 2°54.28 274.7 0.5 31 12.9
2003-05-26 07:16:15 51°16.32 2°54.28 274.3 0.5 32 12.9
2003-05-26 07:16:19 51°16.32 2°54.28 273.9 0.5 32 12.9
2003-05-26 07:16:23 51°16.32 2°54.28 273.6 0.5 33 12.9
2003-05-26 07:16:29 51°16.32 2°54.28 273.2 0.5 32 13
2003-05-26 07:16:35 51°16.33 2°54.28 272.9 0.5 35 13
2003-05-26 07:16:39 51°16.33 2°54.28 272.5 0.5 34 12.9
2003-05-26 07:16:43 51°16.33 2°54.28 272.2 0.5 36 13
2003-05-26 07:16:49 51°16.33 2°54.28 272 0.5 36 12.9
2003-05-26 07:16:55 51°16.33 2°54.28 271.7 0.5 38 13
2003-05-26 07:16:59 51°16.33 2°54.28 271.3 0.5 37 13
2003-05-26 07:17:03 51°16.33 2°54.29 271 0.5 38 13
2003-05-26 07:17:09 51°16.33 2°54.29 270.7 0.6 37 12.9
2003-05-26 07:17:15 51°16.33 2°54.29 270.4 0.6 38 12.9
2003-05-26 07:17:19 51°16.33 2°54.29 270 0.6 38 12.9
2003-05-26 07:17:23 51°16.33 2°54.29 269.4 0.6 40 13
2003-05-26 07:17:29 51°16.33 2°54.29 268.9 0.6 40 12.9
2003-05-26 07:17:35 51°16.33 2°54.29 268.5 0.6 41 12.9
2003-05-26 07:17:39 51°16.33 2°54.29 267.9 0.6 43 13
2003-05-26 07:17:43 51°16.33 2°54.29 267.4 0.6 43 13
2003-05-26 07:17:49 51°16.33 2°54.29 266.9 0.6 45 13
2003-05-26 07:17:55 51°16.33 2°54.29 266.5 0.6 46 13
2003-05-26 07:17:59 51°16.34 2°54.3 266.2 0.6 45 13
2003-05-26 07:18:03 51°16.34 2°54.3 265.7 0.6 47 13
2003-05-26 07:18:09 51°16.34 2°54.3 265.2 0.6 47 13
2003-05-26 07:18:15 51°16.34 2°54.3 264.7 0.6 48 13
2003-05-26 07:18:19 51°16.34 2°54.3 264.2 0.6 47 12.9
2003-05-26 07:18:23 51°16.34 2°54.3 263.4 0.6 47 13
2003-05-26 07:18:29 51°16.34 2°54.3 262.7 0.5 48 13
2003-05-26 07:18:35 51°16.34 2°54.3 261.9 0.5 47 13
2003-05-26 07:18:39 51°16.34 2°54.3 260.9 0.5 48 12.9
2003-05-26 07:18:43 51°16.34 2°54.3 259.9 0.5 49 13
2003-05-26 07:18:49 51°16.34 2°54.3 259 0.5 49 13
2003-05-26 07:18:55 51°16.34 2°54.31 257.9 0.5 49 13
2003-05-26 07:18:59 51°16.34 2°54.31 256.8 0.5 52 13
2003-05-26 07:19:03 51°16.34 2°54.31 255.6 0.4 53 13
2003-05-26 07:19:09 51°16.34 2°54.31 254.5 0.4 54 13
2003-05-26 07:19:15 51°16.34 2°54.31 253.4 0.4 56 13
2003-05-26 07:19:19 51°16.34 2°54.31 252.2 0.4 55 13
2003-05-26 07:19:23 51°16.34 2°54.31 250.9 0.4 58 13
2003-05-26 07:19:29 51°16.34 2°54.31 249.6 0.4 59 13
2003-05-26 07:19:35 51°16.34 2°54.31 248.4 0.4 62 13
2003-05-26 07:19:39 51°16.34 2°54.31 247.1 0.4 65 13
2003-05-26 07:19:43 51°16.34 2°54.31 245.8 0.4 71 13
2003-05-26 07:19:49 51°16.34 2°54.31 244.3 0.3 79 13
2003-05-26 07:19:55 51°16.34 2°54.31 241.5 0.1 212 13
2003-05-26 07:19:59 51°16.34 2°54.31 238.7 0.5 220 12.9
2003-05-26 07:20:03 51°16.34 2°54.31 238 1 226 13
2003-05-26 07:20:09 51°16.34 2°54.31 239.1 1.3 228 13
2003-05-26 07:20:15 51°16.34 2°54.3 241.6 1.7 233 12.9
2003-05-26 07:20:19 51°16.34 2°54.3 245.5 1.9 236 13
2003-05-26 07:20:23 51°16.34 2°54.3 250 2.2 243 13
2003-05-26 07:20:29 51°16.33 2°54.29 255 2.4 247 13
2003-05-26 07:20:35 51°16.33 2°54.28 260.1 2.6 255 13
2003-05-26 07:20:39 51°16.33 2°54.28 265.2 2.8 260 13
2003-05-26 07:20:45 51°16.33 2°54.27 270.4 3 268 13
2003-05-26 07:20:49 51°16.33 2°54.27 276 3.1 274 13
2003-05-26 07:20:55 51°16.34 2°54.26 282.3 3.6 282 13
2003-05-26 07:20:59 51°16.34 2°54.25 289.6 4.1 287 13
2003-05-26 07:21:03 51°16.34 2°54.24 295.9 4.9 295 13
2003-05-26 07:21:09 51°16.34 2°54.23 301.3 5.4 299 13
2003-05-26 07:21:15 51°16.35 2°54.21 303.4 6.1 303 13
2003-05-26 07:21:19 51°16.35 2°54.2 303.7 6.5 304 13
2003-05-26 07:21:23 51°16.36 2°54.19 302.8 7 303 13
2003-05-26 07:21:29 51°16.37 2°54.18 301.2 7.3 302 13
2003-05-26 07:21:35 51°16.37 2°54.16 300 7.7 300 13
2003-05-26 07:21:39 51°16.38 2°54.15 299.7 7.9 300 13
2003-05-26 07:21:43 51°16.38 2°54.13 299.7 8.2 299 13
2003-05-26 07:21:49 51°16.39 2°54.11 300.3 8.4 300 13.1
2003-05-26 07:21:55 51°16.4 2°54.09 300.8 8.6 300 13.2
2003-05-26 07:21:59 51°16.4 2°54.08 301.4 8.7 300 13.2
2003-05-26 07:22:03 51°16.41 2°54.07 301.9 8.9 301 13.2
2003-05-26 07:22:09 51°16.41 2°54.05 302.1 9 301 13.2
2003-05-26 07:22:15 51°16.42 2°54.03 302.2 9.1 302 13.3
2003-05-26 07:22:19 51°16.43 2°54.01 302.4 9.1 302 13.3
2003-05-26 07:22:23 51°16.43 2°54 302.5 9.2 302 13.3
2003-05-26 07:22:29 51°16.44 2°53.98 302.5 9.2 302 13.4
2003-05-26 07:22:35 51°16.45 2°53.96 302.4 9.3 301 13.4
2003-05-26 07:22:39 51°16.45 2°53.94 302.4 9.3 301 13.3
2003-05-26 07:22:43 51°16.46 2°53.93 302.1 9.4 301 13.4
2003-05-26 07:22:49 51°16.47 2°53.91 302 9.4 301 13.4
2003-05-26 07:22:55 51°16.47 2°53.89 301.8 9.4 301 13.4
2003-05-26 07:22:59 51°16.48 2°53.87 301.9 9.4 301 13.4
2003-05-26 07:23:03 51°16.49 2°53.86 301.9 9.4 301 13.4
2003-05-26 07:23:09 51°16.49 2°53.84 301.9 9.4 301 13.4
2003-05-26 07:23:15 51°16.5 2°53.81 302 9.4 301 13.4
2003-05-26 07:23:19 51°16.51 2°53.8 301.8 9.4 301 13.4
2003-05-26 07:23:23 51°16.51 2°53.79 301.8 9.4 301 13.4
2003-05-26 07:23:29 51°16.52 2°53.76 301.9 9.5 301 13.5
2003-05-26 07:23:35 51°16.53 2°53.74 302 9.5 301 13.4
2003-05-26 07:23:39 51°16.53 2°53.73 302.3 9.5 301 13.4
2003-05-26 07:23:43 51°16.54 2°53.71 303.5 9.5 302 13.4
2003-05-26 07:23:49 51°16.55 2°53.69 305.5 9.5 303 13.5
2003-05-26 07:23:55 51°16.56 2°53.67 307.1 9.6 306 13.4
2003-05-26 07:23:59 51°16.56 2°53.66 310.4 9.6 308 13.4
2003-05-26 07:24:03 51°16.57 2°53.65 312.9 9.6 311 13.4
2003-05-26 07:24:09 51°16.58 2°53.63 315 9.6 313 13.3
2003-05-26 07:24:15 51°16.59 2°53.61 316.6 9.7 315 13.4
2003-05-26 07:24:19 51°16.6 2°53.6 317.7 9.7 316 13.3
2003-05-26 07:24:23 51°16.61 2°53.59 318.4 9.7 318 13.3
2003-05-26 07:24:29 51°16.62 2°53.57 319.2 9.7 318 13.3
2003-05-26 07:24:35 51°16.63 2°53.55 319.3 9.7 319 13.3
2003-05-26 07:24:39 51°16.64 2°53.54 319.4 9.7 319 13.2
2003-05-26 07:24:43 51°16.65 2°53.53 319.5 9.7 319 13.1
2003-05-26 07:24:49 51°16.66 2°53.51 319.3 9.7 319 13.1
2003-05-26 07:24:55 51°16.67 2°53.5 318.5 9.7 318 13
2003-05-26 07:24:59 51°16.68 2°53.49 317.4 9.7 317 13.1
2003-05-26 07:25:03 51°16.69 2°53.47 316.8 9.7 316 13
2003-05-26 07:25:09 51°16.7 2°53.46 316.4 9.7 316 13
2003-05-26 07:25:15 51°16.71 2°53.44 315.7 9.7 315 13
2003-05-26 07:25:19 51°16.72 2°53.43 315.4 9.7 314 12.9
2003-05-26 07:25:23 51°16.73 2°53.41 315.3 9.7 314 12.9
2003-05-26 07:25:29 51°16.74 2°53.39 315.2 9.7 314 12.8
2003-05-26 07:25:35 51°16.75 2°53.38 315.4 9.7 314 12.9
2003-05-26 07:25:39 51°16.76 2°53.36 315.7 9.7 314 12.7
2003-05-26 07:25:43 51°16.77 2°53.35 316.2 9.7 315 12.6
2003-05-26 07:25:49 51°16.78 2°53.33 316.9 9.7 316 12.6
2003-05-26 07:25:55 51°16.79 2°53.32 317.5 9.9 316 12.6
2003-05-26 07:25:59 51°16.8 2°53.3 318 10.2 317 12.5
2003-05-26 07:26:05 51°16.81 2°53.28 318.3 10.6 317 12.5
2003-05-26 07:26:09 51°16.82 2°53.27 318.3 10.9 317 12.3
2003-05-26 07:26:15 51°16.83 2°53.25 318.1 11.2 316 12.1
2003-05-26 07:26:19 51°16.84 2°53.24 317.8 11.3 316 11.8
2003-05-26 07:26:23 51°16.85 2°53.22 317.5 11.5 316 11.1
2003-05-26 07:26:29 51°16.87 2°53.2 317.5 11.6 316 10.5
2003-05-26 07:26:35 51°16.88 2°53.18 317.5 11.6 316 10.1
2003-05-26 07:26:39 51°16.89 2°53.16 317.6 11.7 316 9.9
2003-05-26 07:26:43 51°16.9 2°53.15 317.7 11.7 316 9.7
2003-05-26 07:26:49 51°16.91 2°53.13 317.9 11.7 316 9.6
2003-05-26 07:26:55 51°16.93 2°53.11 318 11.7 316 9.7
2003-05-26 07:26:59 51°16.94 2°53.09 317.9 11.7 316 9.7
2003-05-26 07:27:03 51°16.95 2°53.08 317.8 11.7 316 9.8
2003-05-26 07:27:09 51°16.96 2°53.06 317.7 11.8 315 9.8
2003-05-26 07:27:15 51°16.97 2°53.03 317.7 11.8 315 9.9
2003-05-26 07:27:19 51°16.98 2°53.02 317.7 11.9 316 10.1
2003-05-26 07:27:23 51°16.99 2°53 317.9 12 316 10.2
2003-05-26 07:27:29 51°17.01 2°52.98 318.1 12.1 316 10.4
2003-05-26 07:27:35 51°17.02 2°52.96 318.2 12.3 316 10.1
2003-05-26 07:27:39 51°17.03 2°52.94 317.9 12.3 316 10.4
2003-05-26 07:27:43 51°17.04 2°52.93 317.7 12.4 315 10.7
2003-05-26 07:27:49 51°17.06 2°52.9 317.4 12.5 315 10.8
2003-05-26 07:27:55 51°17.07 2°52.88 317.2 12.6 315 10.9
2003-05-26 07:27:59 51°17.08 2°52.87 317.5 12.7 315 11.1
2003-05-26 07:28:03 51°17.09 2°52.85 317.6 12.7 315 11.3
2003-05-26 07:28:09 51°17.11 2°52.83 317.6 12.8 315 11.5
2003-05-26 07:28:15 51°17.12 2°52.8 317.4 12.8 315 11.6
2003-05-26 07:28:19 51°17.13 2°52.79 317.9 12.8 315 11.5
2003-05-26 07:28:23 51°17.14 2°52.77 318.6 12.8 316 11.3
2003-05-26 07:28:29 51°17.16 2°52.75 318.9 12.8 316 11.1
2003-05-26 07:28:35 51°17.17 2°52.72 319.2 12.8 317 11
2003-05-26 07:28:39 51°17.18 2°52.71 319.5 12.8 317 11
2003-05-26 07:28:43 51°17.19 2°52.69 319.6 12.7 317 11.2
2003-05-26 07:28:49 51°17.21 2°52.67 319.7 12.7 317 11.2
2003-05-26 07:28:55 51°17.22 2°52.65 319.8 12.8 317 11.1
2003-05-26 07:28:59 51°17.23 2°52.63 320 12.8 317 11.1
2003-05-26 07:29:03 51°17.24 2°52.62 320 12.8 317 11.3
2003-05-26 07:29:09 51°17.26 2°52.59 319.7 12.8 317 11.4
2003-05-26 07:29:15 51°17.28 2°52.57 319.4 12.8 317 11.2
2003-05-26 07:29:19 51°17.29 2°52.55 319.3 12.8 317 11.4
2003-05-26 07:29:23 51°17.3 2°52.54 319.3 12.8 317 11.6
2003-05-26 07:29:29 51°17.31 2°52.52 319.7 12.8 317 11.4
2003-05-26 07:29:35 51°17.33 2°52.49 319.7 12.8 317 11.6
2003-05-26 07:29:39 51°17.34 2°52.48 319.5 12.8 317 11.6
2003-05-26 07:29:43 51°17.35 2°52.46 319.3 12.8 317 11.7
2003-05-26 07:29:49 51°17.36 2°52.44 319.3 12.8 317 11.7
2003-05-26 07:29:55 51°17.38 2°52.42 319.5 12.8 317 11.7
2003-05-26 07:29:59 51°17.39 2°52.4 319.7 12.8 317 11.7
2003-05-26 07:30:03 51°17.4 2°52.39 319.7 12.8 317 11.9
2003-05-26 07:30:09 51°17.42 2°52.36 319.3 12.8 317 11.9
2003-05-26 07:30:15 51°17.43 2°52.34 319.1 12.8 317 12
2003-05-26 07:30:19 51°17.44 2°52.32 319.1 12.8 317 12
2003-05-26 07:30:23 51°17.45 2°52.31 319.2 12.8 317 11.9
2003-05-26 07:30:29 51°17.47 2°52.29 319.5 12.8 317 12
2003-05-26 07:30:35 51°17.48 2°52.26 319.7 12.8 317 11.9
2003-05-26 07:30:39 51°17.49 2°52.25 319.6 12.8 317 11.9
2003-05-26 07:30:43 51°17.5 2°52.23 319.5 12.8 317 11.8
2003-05-26 07:30:49 51°17.52 2°52.21 319.5 12.8 317 12.1
2003-05-26 07:30:55 51°17.54 2°52.18 319.5 12.8 317 12
2003-05-26 07:30:59 51°17.55 2°52.17 319.5 12.8 317 11.9
2003-05-26 07:31:03 51°17.56 2°52.15 319.3 12.8 317 12.1
2003-05-26 07:31:09 51°17.57 2°52.13 319.1 12.8 317 11.9
2003-05-26 07:31:15 51°17.59 2°52.11 319.1 12.8 317 11.9
2003-05-26 07:31:19 51°17.6 2°52.09 319.3 12.8 317 12
2003-05-26 07:31:23 51°17.61 2°52.08 319.6 12.8 317 11.8
2003-05-26 07:31:29 51°17.62 2°52.05 319.9 12.8 318 12.1
2003-05-26 07:31:35 51°17.64 2°52.03 321.8 12.8 319 12
2003-05-26 07:31:39 51°17.65 2°52.02 324.4 12.8 321 12
2003-05-26 07:31:43 51°17.66 2°52 326.8 12.8 324 11.9
2003-05-26 07:31:49 51°17.68 2°51.99 328.4 12.8 326 11.9
2003-05-26 07:31:55 51°17.7 2°51.97 329.5 12.8 327 11.9
2003-05-26 07:31:59 51°17.71 2°51.96 330.5 12.8 328 11.8
2003-05-26 07:32:03 51°17.72 2°51.94 331 12.9 328 11.8
2003-05-26 07:32:09 51°17.74 2°51.93 331.6 12.9 329 11.8
2003-05-26 07:32:15 51°17.76 2°51.91 331.7 12.9 329 11.8
2003-05-26 07:32:19 51°17.77 2°51.9 332 12.9 330 11.8
2003-05-26 07:32:23 51°17.79 2°51.89 332.1 12.9 330 11.9
2003-05-26 07:32:29 51°17.8 2°51.87 331.9 12.9 329 11.8
2003-05-26 07:32:35 51°17.82 2°51.85 331.3 12.9 329 11.8
2003-05-26 07:32:39 51°17.83 2°51.84 331.1 12.9 329 11.7
2003-05-26 07:32:43 51°17.85 2°51.83 331 12.9 328 11.7
2003-05-26 07:32:49 51°17.86 2°51.81 331 12.9 329 12
2003-05-26 07:32:55 51°17.88 2°51.79 330.9 12.9 328 11.9
2003-05-26 07:32:59 51°17.89 2°51.78 330.9 12.9 328 11.9
2003-05-26 07:33:03 51°17.91 2°51.77 330.8 12.8 328 12
2003-05-26 07:33:09 51°17.92 2°51.75 330.9 12.8 329 12
2003-05-26 07:33:15 51°17.94 2°51.73 331.2 12.9 329 12
2003-05-26 07:33:19 51°17.96 2°51.72 331.2 12.9 329 12
2003-05-26 07:33:23 51°17.97 2°51.71 330.9 12.9 329 12.1
2003-05-26 07:33:29 51°17.99 2°51.69 330.8 12.9 328 12.2
2003-05-26 07:33:35 51°18 2°51.67 330.9 12.9 329 12.2
2003-05-26 07:33:39 51°18.02 2°51.66 331.2 12.9 329 12.2
2003-05-26 07:33:43 51°18.03 2°51.65 331.6 12.9 329 12.3
2003-05-26 07:33:49 51°18.05 2°51.63 331.6 12.9 329 12.4
2003-05-26 07:33:55 51°18.07 2°51.61 331 12.9 329 12.4
2003-05-26 07:33:59 51°18.08 2°51.6 330.7 12.9 328 12.6
2003-05-26 07:34:03 51°18.09 2°51.59 330.5 12.9 328 12.7
2003-05-26 07:34:09 51°18.11 2°51.57 330.6 12.9 328 12.8
2003-05-26 07:34:15 51°18.13 2°51.55 330.6 12.9 328 12.8
2003-05-26 07:34:19 51°18.14 2°51.54 330.6 12.9 328 13
2003-05-26 07:34:23 51°18.15 2°51.53 330.5 12.9 328 13.1
2003-05-26 07:34:29 51°18.17 2°51.51 330.5 12.9 328 13.2
2003-05-26 07:34:35 51°18.19 2°51.49 330.1 12.9 328 13.3
2003-05-26 07:34:39 51°18.2 2°51.48 329 12.9 327 13.4
2003-05-26 07:34:45 51°18.22 2°51.46 328.6 12.9 326 13.5
2003-05-26 07:34:49 51°18.23 2°51.45 328.4 12.9 326 13.6
2003-05-26 07:34:55 51°18.24 2°51.43 328.4 12.7 326 13.6
2003-05-26 07:34:59 51°18.26 2°51.42 328.7 12.3 326 13.8
2003-05-26 07:35:03 51°18.27 2°51.41 328.7 11.5 327 13.8
2003-05-26 07:35:09 51°18.28 2°51.39 329 11 327 14
2003-05-26 07:35:15 51°18.3 2°51.38 329.5 10.3 328 14.1
2003-05-26 07:35:19 51°18.3 2°51.37 330.1 9.9 329 14.2
2003-05-26 07:35:23 51°18.31 2°51.36 330.6 9.5 329 14.3
2003-05-26 07:35:29 51°18.33 2°51.35 331.2 9.2 330 14.4
2003-05-26 07:35:35 51°18.34 2°51.34 331.8 8.8 331 14.4
2003-05-26 07:35:39 51°18.35 2°51.33 332.4 8.6 332 14.5
2003-05-26 07:35:43 51°18.36 2°51.32 333.1 8.4 332 14.6
2003-05-26 07:35:49 51°18.37 2°51.31 332.8 8.2 333 14.6
2003-05-26 07:35:55 51°18.38 2°51.3 331.6 7.9 332 14.7
2003-05-26 07:35:59 51°18.39 2°51.3 329.7 7.8 331 14.7
2003-05-26 07:36:03 51°18.39 2°51.29 327.5 7.6 328 14.8
2003-05-26 07:36:09 51°18.4 2°51.28 325.1 7.5 327 14.8
2003-05-26 07:36:15 51°18.41 2°51.27 322.6 7.3 324 14.9
2003-05-26 07:36:19 51°18.42 2°51.26 319.6 7.1 321 15
2003-05-26 07:36:23 51°18.42 2°51.25 314.6 6.8 317 15.1
2003-05-26 07:36:29 51°18.43 2°51.24 308.7 6.6 312 15
2003-05-26 07:36:35 51°18.44 2°51.22 302.7 6.3 305 15.1
2003-05-26 07:36:39 51°18.44 2°51.21 296.8 6.2 300 15.1
2003-05-26 07:36:43 51°18.44 2°51.2 291 5.9 293 15.1
2003-05-26 07:36:49 51°18.44 2°51.19 285.2 5.8 288 15.2
2003-05-26 07:36:55 51°18.45 2°51.18 280.3 5.7 281 15.2
2003-05-26 07:36:59 51°18.45 2°51.17 276.4 5.6 278 15.2
2003-05-26 07:37:03 51°18.45 2°51.16 274.1 5.6 274 15.2
2003-05-26 07:37:09 51°18.45 2°51.14 273.9 5.7 273 15.2
2003-05-26 07:37:15 51°18.45 2°51.13 275 5.5 274 15.3
2003-05-26 07:37:19 51°18.45 2°51.12 276.7 5.4 275 15.3
2003-05-26 07:37:23 51°18.45 2°51.11 279.6 5.1 278 15.3
2003-05-26 07:37:29 51°18.45 2°51.1 283.3 4.9 281 15.3
2003-05-26 07:37:35 51°18.45 2°51.08 287.3 4.6 285 15.4
2003-05-26 07:37:39 51°18.45 2°51.08 290.1 4.5 288 15.3
2003-05-26 07:37:43 51°18.46 2°51.07 291.1 4.3 291 15.5
2003-05-26 07:37:49 51°18.46 2°51.06 291.9 4.2 292 15.4
2003-05-26 07:37:55 51°18.46 2°51.05 292.9 4 294 15.4
2003-05-26 07:37:59 51°18.46 2°51.04 294 3.9 295 15.4
2003-05-26 07:38:03 51°18.47 2°51.04 295.6 3.7 297 15.4
2003-05-26 07:38:09 51°18.47 2°51.03 297.4 3.6 299 15.4
2003-05-26 07:38:15 51°18.47 2°51.02 299.3 3.4 302 15.5
2003-05-26 07:38:19 51°18.47 2°51.02 301.4 3.1 305 15.4
2003-05-26 07:38:23 51°18.48 2°51.02 304.1 2.6 310 15.4
2003-05-26 07:38:29 51°18.48 2°51.01 306.8 2.3 313 15.6
2003-05-26 07:38:35 51°18.48 2°51.01 309.8 1.9 320 15.5
2003-05-26 07:38:39 51°18.48 2°51.01 312.6 1.7 324 15.5
2003-05-26 07:38:43 51°18.48 2°51.01 314.7 1.4 334 15.6
2003-05-26 07:38:49 51°18.49 2°51.01 316.2 1.1 342 15.5
2003-05-26 07:38:55 51°18.49 2°51.01 318 0.9 358 15.6
2003-05-26 07:38:59 51°18.49 2°51.01 320.4 0.9 6 15.5
2003-05-26 07:39:03 51°18.49 2°51.01 323.2 0.9 9 15.5
2003-05-26 07:39:09 51°18.49 2°51.01 326.3 0.9 10 15.5
2003-05-26 07:39:15 51°18.49 2°51.01 329.6 1 12 15.5
2003-05-26 07:39:19 51°18.49 2°51.01 332.7 1 15 15.5
2003-05-26 07:39:25 51°18.49 2°51.01 335.6 1 17 15.5
2003-05-26 07:39:29 51°18.5 2°51.01 338.3 1.1 19 15.6
2003-05-26 07:39:35 51°18.5 2°51.01 341 1.1 21 15.7
2003-05-26 07:39:39 51°18.5 2°51.01 343.5 1.1 23 15.6
2003-05-26 07:39:45 51°18.5 2°51.01 345.8 1.1 24 15.6
2003-05-26 07:39:49 51°18.5 2°51.01 348.2 1.1 26 15.7
2003-05-26 07:39:55 51°18.5 2°51.02 350 1.2 26 15.6
2003-05-26 07:39:59 51°18.5 2°51.02 351.8 1.2 27 15.6
2003-05-26 07:40:03 51°18.51 2°51.02 352.7 1.3 26 15.6
2003-05-26 07:40:09 51°18.51 2°51.02 353.4 1.3 25 15.6
2003-05-26 07:40:15 51°18.51 2°51.02 353.3 1.3 24 15.6
2003-05-26 07:40:19 51°18.51 2°51.02 352.7 1.4 23 15.6
2003-05-26 07:40:23 51°18.51 2°51.02 351.5 1.4 21 15.6
2003-05-26 07:40:29 51°18.51 2°51.02 350.1 1.4 20 15.6
2003-05-26 07:40:35 51°18.52 2°51.02 348.1 1.5 15 15.6
2003-05-26 07:40:39 51°18.52 2°51.03 345.2 1.6 15 15.6
2003-05-26 07:40:43 51°18.52 2°51.03 342.3 1.6 12 15.6
2003-05-26 07:40:49 51°18.52 2°51.03 339.5 1.5 11 15.7
2003-05-26 07:40:55 51°18.53 2°51.03 336.9 1.5 9 15.7
2003-05-26 07:40:59 51°18.53 2°51.03 334.5 1.5 8 15.7
2003-05-26 07:41:03 51°18.53 2°51.03 332.1 1.4 6 15.7
2003-05-26 07:41:09 51°18.53 2°51.03 329.9 1.4 5 15.7
2003-05-26 07:41:15 51°18.53 2°51.03 327.8 1.4 4 15.8
2003-05-26 07:41:19 51°18.53 2°51.03 325.8 1.3 3 15.8
2003-05-26 07:41:23 51°18.54 2°51.03 324.1 1.3 2 15.7
2003-05-26 07:41:29 51°18.54 2°51.03 322.2 1.3 2 15.7
2003-05-26 07:41:35 51°18.54 2°51.03 320.4 1.2 2 15.8
2003-05-26 07:41:39 51°18.54 2°51.03 318.9 1.2 1 15.7
2003-05-26 07:41:45 51°18.54 2°51.03 317.3 1.2   15.7
2003-05-26 07:41:49 51°18.54 2°51.03 315.8 1.2   15.8
2003-05-26 07:41:55 51°18.55 2°51.03 314.2 1.1 359 15.8
2003-05-26 07:41:59 51°18.55 2°51.03 312.8 1.1 358 15.7
2003-05-26 07:42:03 51°18.55 2°51.03 311.3 1.1 358 15.8
2003-05-26 07:42:09 51°18.55 2°51.03 309.9 1.1 357 15.8
2003-05-26 07:42:15 51°18.55 2°51.03 308.4 1 356 15.8
2003-05-26 07:42:19 51°18.55 2°51.03 306.7 1 355 15.8
2003-05-26 07:42:23 51°18.55 2°51.03 305.6 1 353 15.7
2003-05-26 07:42:29 51°18.56 2°51.03 303.8 0.9 353 15.7
2003-05-26 07:42:35 51°18.56 2°51.03 302.2 0.9 352 15.7
2003-05-26 07:42:39 51°18.56 2°51.03 300.8 0.9 352 15.8
2003-05-26 07:42:43 51°18.56 2°51.03 299.2 0.9 351 15.8
2003-05-26 07:42:49 51°18.56 2°51.03 297.8 0.8 351 15.8
2003-05-26 07:42:55 51°18.56 2°51.03 296.7 0.8 350 15.8
2003-05-26 07:42:59 51°18.56 2°51.03 294.9 0.8 350 15.8
2003-05-26 07:43:03 51°18.56 2°51.03 293.6 0.8 349 15.9
2003-05-26 07:43:09 51°18.56 2°51.03 291.8 0.7 348 15.8
2003-05-26 07:43:15 51°18.57 2°51.03 290.3 0.7 347 15.8
2003-05-26 07:43:19 51°18.57 2°51.03 288.9 0.7 346 15.8
2003-05-26 07:43:23 51°18.57 2°51.03 287.4 0.7 345 15.8
2003-05-26 07:43:29 51°18.57 2°51.02 285.9 0.6 345 15.8
2003-05-26 07:43:35 51°18.57 2°51.02 284.8 0.6 344 15.8
2003-05-26 07:43:39 51°18.57 2°51.02 283.2 0.6 344 15.7
2003-05-26 07:43:43 51°18.57 2°51.02 281.8 0.6 342 15.8
2003-05-26 07:43:49 51°18.57 2°51.02 280 0.5 343 15.8
2003-05-26 07:43:55 51°18.57 2°51.02 278.7 0.5 341 15.8
2003-05-26 07:43:59 51°18.57 2°51.02 277.1 0.5 340 15.8
2003-05-26 07:44:03 51°18.57 2°51.02 275.6 0.5 338 15.8
2003-05-26 07:44:09 51°18.57 2°51.02 274.1 0.4 337 15.8
2003-05-26 07:44:15 51°18.57 2°51.02 272.5 0.4 337 15.9
2003-05-26 07:44:19 51°18.57 2°51.02 270.9 0.4 337 15.9
2003-05-26 07:44:23 51°18.57 2°51.02 269.3 0.3 335 15.8
2003-05-26 07:44:29 51°18.58 2°51.02 267.8 0.3 335 15.8
2003-05-26 07:44:35 51°18.58 2°51.02 266.1 0.3 334 15.9
2003-05-26 07:44:39 51°18.58 2°51.02 264.7 0.3 333 15.8
2003-05-26 07:44:43 51°18.58 2°51.02 263.4 0.2 330 15.8
2003-05-26 07:44:49 51°18.58 2°51.02 261.8 0.2 330 15.9
2003-05-26 07:44:55 51°18.58 2°51.02 259.8 0.2 329 15.8
2003-05-26 07:44:59 51°18.58 2°51.02 258.3 0.2 333 15.8
2003-05-26 07:45:03 51°18.58 2°51.02 256.7 0.1 331 15.9
2003-05-26 07:45:09 51°18.58 2°51.02 254.9 0.1 330 15.9
2003-05-26 07:45:15 51°18.58 2°51.02 253.3 0.1 320 15.8
2003-05-26 07:45:19 51°18.58 2°51.02 252 0.1 301 15.8
2003-05-26 07:45:23 51°18.58 2°51.02 250.3   296 15.8
2003-05-26 07:45:29 51°18.58 2°51.02 248.6   226 15.9
2003-05-26 07:45:35 51°18.58 2°51.02 246.8   184 15.8
2003-05-26 07:45:39 51°18.58 2°51.02 244.8   168 15.8
2003-05-26 07:45:43 51°18.58 2°51.02 243.6 0.1 163 15.8
2003-05-26 07:45:49 51°18.58 2°51.02 241.6 0.1 156 15.8
2003-05-26 07:45:55 51°18.58 2°51.02 240.1 0.1 155 15.8
2003-05-26 07:45:59 51°18.58 2°51.02 238.3 0.2 152 15.8
2003-05-26 07:46:03 51°18.58 2°51.02 236.3 0.2 149 15.9
2003-05-26 07:46:09 51°18.58 2°51.02 234.8 0.2 149 15.9
2003-05-26 07:46:15 51°18.58 2°51.02 232.6 0.3 147 15.8
2003-05-26 07:46:19 51°18.58 2°51.02 230.8 0.3 144 15.8
2003-05-26 07:46:23 51°18.57 2°51.02 228.9 0.3 144 15.8
2003-05-26 07:46:29 51°18.57 2°51.02 227.4 0.3 143 15.8
2003-05-26 07:46:35 51°18.57 2°51.02 225.6 0.4 141 15.9
2003-05-26 07:46:39 51°18.57 2°51.02 223.4 0.4 140 15.8
2003-05-26 07:46:43 51°18.57 2°51.02 221.8 0.5 140 15.8
2003-05-26 07:46:49 51°18.57 2°51.02 219.9 0.5 139 15.8
2003-05-26 07:46:55 51°18.57 2°51.02 217.8 0.5 138 15.8
2003-05-26 07:46:59 51°18.57 2°51.03 216.5 0.5 137 15.8
2003-05-26 07:47:03 51°18.57 2°51.03 215.1 0.5 137 15.8
2003-05-26 07:47:09 51°18.57 2°51.03 214 0.6 137 15.8
2003-05-26 07:47:15 51°18.57 2°51.03 212.9 0.6 138 15.8
2003-05-26 07:47:19 51°18.57 2°51.03 212.1 0.6 138 15.8
2003-05-26 07:47:23 51°18.57 2°51.03 211.2 0.6 138 15.8
2003-05-26 07:47:29 51°18.57 2°51.03 210.4 0.7 138 15.8
2003-05-26 07:47:35 51°18.57 2°51.03 209.8 0.7 138 15.9
2003-05-26 07:47:39 51°18.57 2°51.03 209.2 0.7 138 15.9
2003-05-26 07:47:43 51°18.57 2°51.03 208.7 0.7 139 15.9
2003-05-26 07:47:49 51°18.57 2°51.04 208.2 0.7 138 15.9
2003-05-26 07:47:55 51°18.56 2°51.04 207.8 0.7 139 15.9
2003-05-26 07:47:59 51°18.56 2°51.04 207.2 0.8 138 15.9
2003-05-26 07:48:03 51°18.56 2°51.04 207.1 0.8 138 15.9
2003-05-26 07:48:09 51°18.56 2°51.04 206.9 0.8 138 15.8
2003-05-26 07:48:15 51°18.56 2°51.04 206.6 0.8 139 15.8
2003-05-26 07:48:19 51°18.56 2°51.04 206.3 0.8 139 15.8
2003-05-26 07:48:23 51°18.56 2°51.04 206.3 0.8 139 15.8
2003-05-26 07:48:29 51°18.56 2°51.04 206.2 0.8 139 15.8
2003-05-26 07:48:35 51°18.56 2°51.05 206.1 0.8 143 15.8
2003-05-26 07:48:39 51°18.56 2°51.05 206.1 0.9 152 15.9
2003-05-26 07:48:43 51°18.55 2°51.05 206.9 1.2 167 15.9
2003-05-26 07:48:49 51°18.55 2°51.05 208.9 1.4 175 15.8
2003-05-26 07:48:55 51°18.55 2°51.05 211.2 1.7 184 15.7
2003-05-26 07:48:59 51°18.55 2°51.05 214.2 2 189 15.8
2003-05-26 07:49:03 51°18.54 2°51.04 217.6 2.1 197 15.8
2003-05-26 07:49:09 51°18.54 2°51.04 221.6 2.3 202 15.8
2003-05-26 07:49:15 51°18.54 2°51.04 224.5 2.4 208 15.8
2003-05-26 07:49:19 51°18.54 2°51.04 228.3 2.6 213 15.8
2003-05-26 07:49:23 51°18.53 2°51.03 231.8 2.7 219 15.8
2003-05-26 07:49:29 51°18.53 2°51.03 235.7 2.8 223 15.5
2003-05-26 07:49:35 51°18.53 2°51.02 239.5 3 229 15.8
2003-05-26 07:49:39 51°18.52 2°51.02 243.1 3.1 233 15.7
2003-05-26 07:49:43 51°18.52 2°51.01 247 3.2 240 15.9
2003-05-26 07:49:49 51°18.52 2°51 251.1 3.3 244 15.8
2003-05-26 07:49:55 51°18.52 2°50.99 255.9 3.4 251 15.7
2003-05-26 07:49:59 51°18.52 2°50.99 260.9 3.4 256 15.7
2003-05-26 07:50:03 51°18.52 2°50.98 266.2 3.5 264 15.8
2003-05-26 07:50:09 51°18.52 2°50.97 271.4 3.6 269 15.8
2003-05-26 07:50:15 51°18.52 2°50.96 276.5 3.7 276 15.8
2003-05-26 07:50:19 51°18.52 2°50.96 281.6 3.7 281 15.9
2003-05-26 07:50:23 51°18.52 2°50.95 286.7 3.8 288 15.8
2003-05-26 07:50:29 51°18.52 2°50.94 292 3.9 293 15.9
2003-05-26 07:50:35 51°18.53 2°50.93 297.2 4 300 15.9
2003-05-26 07:50:39 51°18.53 2°50.93 302.5 4.1 304 15.9
2003-05-26 07:50:43 51°18.53 2°50.92 307.8 4.2 311 15.9
2003-05-26 07:50:49 51°18.54 2°50.91 313 4.3 316 15.9
2003-05-26 07:50:55 51°18.54 2°50.91 318.3 4.4 323 15.9
2003-05-26 07:50:59 51°18.55 2°50.9 323.7 4.5 328 16.1
2003-05-26 07:51:03 51°18.55 2°50.9 329.2 4.6 335 16.1
2003-05-26 07:51:09 51°18.56 2°50.9 334.4 4.7 339 16
2003-05-26 07:51:15 51°18.57 2°50.89 339.9 4.9 345 16
2003-05-26 07:51:19 51°18.57 2°50.89 346 5.2 348 16.1
2003-05-26 07:51:23 51°18.58 2°50.89 351.9 5.9 355 16.1
2003-05-26 07:51:29 51°18.59 2°50.89 357.4 6.4 358 16
2003-05-26 07:51:35 51°18.6 2°50.89 1.8 7 3 16.1
2003-05-26 07:51:39 51°18.61 2°50.89 5 7.4 5 16.2
2003-05-26 07:51:43 51°18.62 2°50.9 7.7 7.9 8 16.1
2003-05-26 07:51:49 51°18.64 2°50.9 10.8 8.3 11 16.2
2003-05-26 07:51:55 51°18.65 2°50.91 14.3 9.2 13 16.2
2003-05-26 07:51:59 51°18.66 2°50.91 18 10 16 16.2
2003-05-26 07:52:03 51°18.67 2°50.92 20.7 11 19 16.2
2003-05-26 07:52:09 51°18.69 2°50.93 23 11.6 21 16.2
2003-05-26 07:52:15 51°18.71 2°50.94 24.3 12.4 22 16.2
2003-05-26 07:52:19 51°18.73 2°50.95 25.9 12.8 23 16.2
2003-05-26 07:52:23 51°18.74 2°50.96 26.9 13.3 25 16.3
2003-05-26 07:52:29 51°18.76 2°50.98 27.7 13.5 25 16.3
2003-05-26 07:52:35 51°18.78 2°51 30.6 13.7 28 16.3
2003-05-26 07:52:39 51°18.79 2°51.01 35.1 13.8 31 16.3
2003-05-26 07:52:43 51°18.8 2°51.03 39.5 13.9 36 16.4
2003-05-26 07:52:49 51°18.82 2°51.05 43.3 14 39 16.3
2003-05-26 07:52:55 51°18.84 2°51.08 48.3 14.2 44 16.4
2003-05-26 07:52:59 51°18.85 2°51.1 53.1 14.2 48 16.5
2003-05-26 07:53:03 51°18.86 2°51.12 57.7 14.3 53 16.4
2003-05-26 07:53:09 51°18.87 2°51.15 60.7 14.4 56 16.4
2003-05-26 07:53:15 51°18.88 2°51.18 62.9 14.5 58 16.5
2003-05-26 07:53:19 51°18.89 2°51.21 64.8 14.5 60 16.5
2003-05-26 07:53:23 51°18.9 2°51.23 65.9 14.6 62 16.4
2003-05-26 07:53:29 51°18.91 2°51.26 67.5 14.7 63 16.5
2003-05-26 07:53:35 51°18.92 2°51.3 70.6 14.7 65 16.4
2003-05-26 07:53:39 51°18.93 2°51.32 73.3 14.7 68 16.4
2003-05-26 07:53:43 51°18.93 2°51.35 75.6 14.7 71 16.3
2003-05-26 07:53:49 51°18.94 2°51.39 76.8 14.7 72 16.3
2003-05-26 07:53:55 51°18.95 2°51.42 77.3 14.7 73 16.4
2003-05-26 07:53:59 51°18.95 2°51.45 78.3 14.8 73 16.6
2003-05-26 07:54:03 51°18.95 2°51.47 78.8 14.8 74 16.5
2003-05-26 07:54:09 51°18.96 2°51.51 79 14.8 74 16.4
2003-05-26 07:54:15 51°18.97 2°51.55 79.1 14.8 74 16.4
2003-05-26 07:54:19 51°18.97 2°51.57 79.3 14.8 74 16.3
2003-05-26 07:54:25 51°18.98 2°51.61 78.6 14.8 74 16.1
2003-05-26 07:54:29 51°18.98 2°51.64 78.3 14.7 74 16.4
2003-05-26 07:54:35 51°18.99 2°51.67 78.5 14.7 74 16.5
2003-05-26 07:54:39 51°18.99 2°51.7 78.5 14.8 74 16.5
2003-05-26 07:54:43 51°19 2°51.72 78.7 14.8 74 16.4
2003-05-26 07:54:49 51°19.01 2°51.76 78.3 14.8 74 16.3
2003-05-26 07:54:55 51°19.01 2°51.8 78.6 14.7 74 16.3
2003-05-26 07:54:59 51°19.02 2°51.83 79 14.7 74 16.3
2003-05-26 07:55:05 51°19.02 2°51.86 79 14.8 74 16.2
2003-05-26 07:55:09 51°19.03 2°51.89 78.6 14.8 74 16.3
2003-05-26 07:55:15 51°19.03 2°51.93 78.3 14.8 74 16.2
2003-05-26 07:55:19 51°19.04 2°51.95 78.5 14.8 74 16.1
2003-05-26 07:55:23 51°19.04 2°51.98 78.7 14.8 74 16.1
2003-05-26 07:55:29 51°19.05 2°52.01 78.8 14.8 74 16.2
2003-05-26 07:55:35 51°19.06 2°52.05 78.7 14.7 74 16.1
2003-05-26 07:55:39 51°19.06 2°52.08 78.3 14.7 74 16
2003-05-26 07:55:43 51°19.07 2°52.1 78.4 14.8 74 15.9
2003-05-26 07:55:49 51°19.07 2°52.14 78.7 14.8 74 15.8
2003-05-26 07:55:55 51°19.08 2°52.18 78.9 14.7 74 15.8
2003-05-26 07:55:59 51°19.08 2°52.2 79 14.7 74 15.8
2003-05-26 07:56:03 51°19.09 2°52.23 79 14.8 74 15.7
2003-05-26 07:56:09 51°19.09 2°52.27 79 14.8 75 15.7
2003-05-26 07:56:15 51°19.1 2°52.3 78.8 14.8 74 15.6
2003-05-26 07:56:19 51°19.11 2°52.33 78.5 14.7 74 15.6
2003-05-26 07:56:23 51°19.11 2°52.35 78.5 14.7 74 15.5
2003-05-26 07:56:29 51°19.12 2°52.39 78.8 14.8 74 15.5
2003-05-26 07:56:35 51°19.12 2°52.43 79.1 14.8 75 15.5
2003-05-26 07:56:39 51°19.13 2°52.45 79.3 14.8 75 15.4
2003-05-26 07:56:45 51°19.13 2°52.49 79.4 14.7 75 15.4
2003-05-26 07:56:49 51°19.14 2°52.52 79.1 14.6 75 15.3
2003-05-26 07:56:55 51°19.14 2°52.56 79.2 14.7 75 15.3
2003-05-26 07:56:59 51°19.15 2°52.58 79 14.7 75 15.3
2003-05-26 07:57:03 51°19.15 2°52.61 78.7 14.7 75 15.1
2003-05-26 07:57:09 51°19.16 2°52.64 79.1 14.7 75 15.1
2003-05-26 07:57:15 51°19.16 2°52.68 79.1 14.7 75 15.1
2003-05-26 07:57:19 51°19.17 2°52.71 78.8 14.7 75 15.1
2003-05-26 07:57:23 51°19.17 2°52.73 78.8 14.6 75 15
2003-05-26 07:57:29 51°19.18 2°52.77 78.7 14.6 75 14.9
2003-05-26 07:57:35 51°19.19 2°52.81 79.1 14.7 75 14.9
2003-05-26 07:57:39 51°19.19 2°52.83 79.5 14.7 75 14.9
2003-05-26 07:57:43 51°19.19 2°52.86 79.5 14.7 75 14.8
2003-05-26 07:57:49 51°19.2 2°52.89 79.4 14.7 75 14.8
2003-05-26 07:57:55 51°19.21 2°52.93 79.1 14.7 75 14.7
2003-05-26 07:57:59 51°19.21 2°52.96 78.6 14.7 75 14.7
2003-05-26 07:58:03 51°19.22 2°52.98 78.8 14.8 75 14.6
2003-05-26 07:58:09 51°19.22 2°53.02 79.1 14.8 75 14.6
2003-05-26 07:58:15 51°19.23 2°53.06 78.2 14.7 74 14.6
2003-05-26 07:58:19 51°19.23 2°53.08 77.6 14.7 74 14.5
2003-05-26 07:58:23 51°19.24 2°53.11 76.9 14.7 73 14.5
2003-05-26 07:58:29 51°19.25 2°53.15 76.7 14.7 73 14.4
2003-05-26 07:58:35 51°19.25 2°53.18 76.2 14.7 72 14.4
2003-05-26 07:58:39 51°19.26 2°53.21 75.8 14.7 72 14.5
2003-05-26 07:58:43 51°19.26 2°53.23 75.8 14.7 72 14.4
2003-05-26 07:58:49 51°19.27 2°53.27 75.6 14.7 72 14.4
2003-05-26 07:58:55 51°19.28 2°53.31 75.5 14.8 72 14.3
2003-05-26 07:58:59 51°19.28 2°53.33 75.5 14.7 72 14.4
2003-05-26 07:59:03 51°19.29 2°53.36 75.7 14.6 72 14.3
2003-05-26 07:59:09 51°19.3 2°53.39 76 14.6 72 14.4
2003-05-26 07:59:15 51°19.3 2°53.43 76.1 14.7 72 14.3
2003-05-26 07:59:19 51°19.31 2°53.45 76.2 14.7 72 14.3
2003-05-26 07:59:23 51°19.31 2°53.48 76.1 14.7 72 14.3
2003-05-26 07:59:29 51°19.32 2°53.52 76.2 14.7 72 14.2
2003-05-26 07:59:35 51°19.33 2°53.55 76.2 14.7 72 14.2
2003-05-26 07:59:39 51°19.33 2°53.58 75.7 14.8 72 14.2
2003-05-26 07:59:43 51°19.34 2°53.6 75.5 14.8 72 14.2
2003-05-26 07:59:49 51°19.35 2°53.64 75.6 14.8 71 14.2
2003-05-26 07:59:55 51°19.35 2°53.68 76.2 14.7 72 14.2
2003-05-26 07:59:59 51°19.36 2°53.7 76.1 14.8 72 14.2
2003-05-26 08:00:05 51°19.37 2°53.74 75.8 14.7 72 14.2
2003-05-26 08:00:09 51°19.37 2°53.77 75.8 14.7 72 14.1
2003-05-26 08:00:15 51°19.38 2°53.8 75.8 14.7 72 14.1
2003-05-26 08:00:19 51°19.38 2°53.83 75.8 14.7 72 14.1
2003-05-26 08:00:23 51°19.39 2°53.85 76.2 14.7 72 14.1
2003-05-26 08:00:29 51°19.4 2°53.89 76.3 14.7 72 14.1
2003-05-26 08:00:35 51°19.4 2°53.93 76.4 14.8 72 14.1
2003-05-26 08:00:39 51°19.41 2°53.95 76.2 14.8 72 14.1
2003-05-26 08:00:45 51°19.42 2°53.99 75.9 14.8 72 14.1
2003-05-26 08:00:49 51°19.42 2°54.01 75.7 14.7 72 14.1
2003-05-26 08:00:55 51°19.43 2°54.05 76 14.7 72 14
2003-05-26 08:00:59 51°19.44 2°54.08 76.2 14.8 72 14.1
2003-05-26 08:01:03 51°19.44 2°54.1 76.2 14.8 72 14.1
2003-05-26 08:01:09 51°19.45 2°54.14 76.2 14.8 72 14
2003-05-26 08:01:15 51°19.46 2°54.18 76.3 14.8 72 14
2003-05-26 08:01:19 51°19.46 2°54.2 76.6 14.8 72 14
2003-05-26 08:01:23 51°19.46 2°54.23 76.6 14.8 72 14
2003-05-26 08:01:29 51°19.47 2°54.26 76.5 14.8 72 14
2003-05-26 08:01:35 51°19.48 2°54.3 76 14.8 72 14
2003-05-26 08:01:39 51°19.49 2°54.33 75.4 14.8 71 13.9
2003-05-26 08:01:45 51°19.49 2°54.36 75.4 14.8 71 14
2003-05-26 08:01:49 51°19.5 2°54.39 76 14.8 71 14
2003-05-26 08:01:55 51°19.51 2°54.43 76.3 14.8 72 14
2003-05-26 08:01:59 51°19.51 2°54.45 76.4 14.8 72 14
2003-05-26 08:02:03 51°19.52 2°54.48 76.4 14.8 72 14
2003-05-26 08:02:09 51°19.52 2°54.51 76.8 14.8 72 14
2003-05-26 08:02:15 51°19.53 2°54.55 77.3 14.8 73 14.1
2003-05-26 08:02:19 51°19.54 2°54.58 77.4 14.8 73 14
2003-05-26 08:02:25 51°19.54 2°54.61 77 14.9 73 14
2003-05-26 08:02:29 51°19.55 2°54.64 76.9 14.8 73 14
2003-05-26 08:02:35 51°19.56 2°54.68 77.1 14.8 73 14
2003-05-26 08:02:39 51°19.56 2°54.7 77.2 14.8 73 14
2003-05-26 08:02:43 51°19.57 2°54.73 77.4 14.8 73 14
2003-05-26 08:02:49 51°19.57 2°54.76 77.6 14.8 73 14
2003-05-26 08:02:55 51°19.58 2°54.8 77.9 14.9 73 14
2003-05-26 08:02:59 51°19.58 2°54.83 77.8 14.9 73 14
2003-05-26 08:03:05 51°19.59 2°54.87 77.5 14.8 73 14
2003-05-26 08:03:09 51°19.6 2°54.89 77.1 14.8 73 14
2003-05-26 08:03:15 51°19.6 2°54.93 77.4 14.9 73 14
2003-05-26 08:03:19 51°19.61 2°54.95 77.6 14.9 73 14
2003-05-26 08:03:23 51°19.61 2°54.98 77.6 14.9 73 14
2003-05-26 08:03:29 51°19.62 2°55.02 77 14.9 73 14